Time;durP1;ratioP1;P1;durP2;ratioP2;P2;SDS_P1;SDS_P2;PMS_P1;PMS_P2;Temp;Humidity;BMP_temperature;BMP_pressure;BME280_temperature;BME280_humidity;BME280_pressure;Samples;Min_cycle;Max_cycle;Signal;HPM_P1;HPM_P2
2022/01/16 00:00:02;;;;;;;50.60;22.27;;;;;;;-1.61;82.60;99813.16;2173496;81;21412;-81
2022/01/16 00:06:22;;;;;;;51.87;23.73;;;;;;;-1.70;82.70;99835.51;2173364;82;21441;-83
2022/01/16 00:09:22;;;;;;;60.83;26.13;;;;;;;-1.72;82.81;99822.09;2173661;81;20973;-82
2022/01/16 00:12:23;;;;;;;59.50;25.77;;;;;;;-1.73;83.15;99827.59;2173611;82;20948;-82
2022/01/16 00:15:24;;;;;;;60.47;25.80;;;;;;;-1.78;82.88;99827.61;2173490;82;21000;-81
2022/01/16 00:18:28;;;;;;;59.97;25.77;;;;;;;-1.75;83.07;99837.19;2173123;81;21004;-83
2022/01/16 00:21:27;;;;;;;58.40;25.87;;;;;;;-1.71;82.99;99831.16;2173273;81;20977;-81
2022/01/16 00:24:27;;;;;;;80.43;31.60;;;;;;;-1.71;83.07;99813.63;2173559;81;21012;-81
2022/01/16 00:27:28;;;;;;;61.53;26.33;;;;;;;-1.75;83.00;99802.63;2173553;81;20941;-83
2022/01/16 00:30:28;;;;;;;65.43;27.80;;;;;;;-1.81;83.07;99812.41;2172957;81;21012;-82
2022/01/16 00:33:29;;;;;;;58.53;27.90;;;;;;;-1.86;83.11;99811.17;2173775;80;20980;-81
2022/01/16 00:36:29;;;;;;;64.33;27.33;;;;;;;-1.84;83.39;99816.02;2189952;81;20995;-82
2022/01/16 00:39:30;;;;;;;58.93;26.20;;;;;;;-1.88;83.24;99788.41;2190118;81;20997;-80
2022/01/16 00:42:30;;;;;;;56.67;26.37;;;;;;;-1.93;83.30;99824.78;2190124;81;20968;-82
2022/01/16 00:45:34;;;;;;;59.03;23.40;;;;;;;-1.92;83.50;99796.24;2190215;81;20968;-82
2022/01/16 00:48:33;;;;;;;59.73;24.33;;;;;;;-1.94;83.47;99788.45;2190408;81;21068;-81
2022/01/16 00:51:34;;;;;;;63.10;23.50;;;;;;;-1.89;83.47;99816.05;2190538;81;20992;-81
2022/01/16 00:54:34;;;;;;;59.07;27.00;;;;;;;-1.93;83.40;99810.70;2190603;81;20944;-82
2022/01/16 00:57:35;;;;;;;72.00;29.80;;;;;;;-1.95;83.36;99827.61;2190266;81;20947;-82
2022/01/16 01:00:35;;;;;;;67.80;27.30;;;;;;;-1.93;83.51;99826.45;2190416;81;20949;-81
2022/01/16 01:03:35;;;;;;;64.00;28.30;;;;;;;-1.89;83.69;99841.26;2190618;81;20972;-82
2022/01/16 01:06:36;;;;;;;69.20;28.73;;;;;;;-1.84;83.69;99791.70;2189881;81;21283;-83
2022/01/16 01:09:37;;;;;;;64.17;27.33;;;;;;;-1.76;83.86;99786.38;2188548;81;21004;-81
2022/01/16 01:12:52;;;;;;;73.50;28.80;;;;;;;-1.75;83.51;99794.95;2189449;81;21407;-81
2022/01/16 01:15:46;;;;;;;64.13;27.23;;;;;;;-1.74;83.42;99806.58;2188073;81;21013;-80
2022/01/16 01:18:45;;;;;;;57.90;26.03;;;;;;;-1.79;83.19;99813.41;2189759;81;21067;-81
2022/01/16 01:21:46;;;;;;;72.63;28.97;;;;;;;-1.80;83.31;99790.77;2189512;81;20952;-81
2022/01/16 01:24:47;;;;;;;53.57;25.50;;;;;;;-1.84;83.30;99774.68;2189612;81;21004;-81
2022/01/16 01:27:47;;;;;;;58.60;26.97;;;;;;;-1.83;83.54;99790.92;2189959;81;20972;-81
2022/01/16 01:30:48;;;;;;;61.90;27.83;;;;;;;-1.82;83.38;99766.73;2189934;81;20936;-80
2022/01/16 01:33:48;;;;;;;64.20;26.23;;;;;;;-1.76;83.64;99797.90;2189966;80;21004;-81
2022/01/16 01:36:49;;;;;;;56.57;27.00;;;;;;;-1.71;83.49;99768.84;2189400;81;21066;-81
2022/01/16 01:39:50;;;;;;;70.03;28.57;;;;;;;-1.66;83.50;99785.04;2190246;81;21392;-82
2022/01/16 01:52:23;;;;;;;67.50;26.93;;;;;;;-1.72;83.44;99642.91;2189922;81;20988;-81
2022/01/16 01:55:24;;;;;;;67.83;26.40;;;;;;;-1.70;83.51;99643.91;2190306;81;21007;-81
2022/01/16 01:58:25;;;;;;;71.63;29.00;;;;;;;-1.70;83.59;99668.23;2190511;81;20960;-82
2022/01/16 02:01:25;;;;;;;61.80;27.13;;;;;;;-1.66;83.61;99699.67;2190105;81;21001;-81
2022/01/16 02:04:26;;;;;;;82.50;32.17;;;;;;;-1.67;83.70;99690.21;2190448;81;20968;-81
2022/01/16 02:07:26;;;;;;;75.53;30.60;;;;;;;-1.70;83.86;99696.00;2190234;81;20960;-82
2022/01/16 02:10:27;;;;;;;79.00;32.83;;;;;;;-1.67;84.04;99696.22;2190446;81;21351;-82
2022/01/16 02:13:31;;;;;;;92.70;32.83;;;;;;;-1.66;84.00;99720.16;2190469;81;20963;-81
2022/01/16 02:36:17;;;;;;;80.53;31.57;;;;;;;-1.53;84.59;99723.22;2164587;82;21027;-80
2022/01/16 02:39:15;;;;;;;81.63;32.10;;;;;;;-1.50;84.56;99746.48;2173134;81;21012;-82
2022/01/16 02:42:16;;;;;;;83.83;34.10;;;;;;;-1.47;84.57;99733.52;2173642;81;21370;-81
2022/01/16 02:45:28;;;;;;;79.17;31.33;;;;;;;-1.45;84.52;99731.95;2173193;81;21349;-81
2022/01/16 02:48:19;;;;;;;91.03;32.77;;;;;;;-1.44;84.69;99733.73;2172615;81;20964;-81
2022/01/16 02:51:19;;;;;;;76.90;30.03;;;;;;;-1.47;84.69;99735.19;2173313;81;20984;-82
2022/01/16 02:54:20;;;;;;;81.03;36.37;;;;;;;-1.48;84.83;99720.60;2173327;82;20945;-81
2022/01/16 02:57:20;;;;;;;82.60;32.77;;;;;;;-1.48;84.89;99728.28;2173103;81;20977;-82
2022/01/16 03:00:21;;;;;;;82.53;33.57;;;;;;;-1.50;84.92;99733.69;2173767;81;21000;-82
2022/01/16 03:03:21;;;;;;;86.70;32.23;;;;;;;-1.57;85.00;99722.11;2173444;82;21028;-81
2022/01/16 03:06:22;;;;;;;72.03;29.40;;;;;;;-1.58;85.31;99719.43;2173395;81;21044;-80
2022/01/16 03:09:23;;;;;;;56.77;26.87;;;;;;;-1.60;85.10;99730.84;2173072;81;20996;-80
2022/01/16 03:12:23;;;;;;;64.33;28.20;;;;;;;-1.62;85.09;99734.95;2173308;82;20933;-81
2022/01/16 03:15:24;;;;;;;54.43;26.80;;;;;;;-1.63;85.16;99734.45;2173685;81;20961;-80
2022/01/16 03:24:46;;;;;;;61.77;25.90;;;;;;;-1.65;85.25;99727.94;2173898;82;21036;-81
2022/01/16 03:27:46;;;;;;;70.17;29.13;;;;;;;-1.64;85.30;99723.71;2173858;82;20957;-81
2022/01/16 03:30:47;;;;;;;77.00;29.30;;;;;;;-1.64;85.44;99714.75;2173727;81;20968;-82
2022/01/16 03:33:47;;;;;;;69.60;28.63;;;;;;;-1.65;85.50;99718.09;2173887;81;20988;-82
2022/01/16 03:36:47;;;;;;;74.00;31.80;;;;;;;-1.65;85.73;99717.70;2173448;80;21000;-83
2022/01/16 03:39:48;;;;;;;83.23;31.30;;;;;;;-1.61;85.83;99708.58;2173822;81;21336;-82
2022/01/16 03:42:49;;;;;;;95.97;33.67;;;;;;;-1.55;85.96;99694.05;2173317;82;20999;-81
2022/01/16 03:45:49;;;;;;;91.70;34.67;;;;;;;-1.50;85.94;99685.03;2173625;82;20960;-80
2022/01/16 03:48:50;;;;;;;76.57;30.40;;;;;;;-1.49;85.83;99668.89;2173557;81;20941;-82
2022/01/16 03:51:50;;;;;;;76.00;30.07;;;;;;;-1.46;85.67;99671.67;2173649;81;20956;-83
2022/01/16 03:54:51;;;;;;;70.67;28.60;;;;;;;-1.49;85.58;99670.17;2173514;82;20948;-81
2022/01/16 03:57:51;;;;;;;78.37;28.23;;;;;;;-1.52;85.66;99672.12;2173535;82;21325;-82
2022/01/16 04:00:52;;;;;;;65.80;25.70;;;;;;;-1.55;85.58;99661.66;2173924;81;20992;-82
2022/01/16 04:03:52;;;;;;;65.17;24.20;;;;;;;-1.55;85.56;99656.53;2173444;82;21411;-82
2022/01/16 04:06:53;;;;;;;58.10;25.83;;;;;;;-1.51;85.53;99658.53;2172948;81;21391;-81
2022/01/16 04:09:53;;;;;;;60.17;25.03;;;;;;;-1.55;85.29;99662.05;2173149;81;20980;-80
2022/01/16 04:12:54;;;;;;;47.97;20.30;;;;;;;-1.50;85.40;99653.02;2173111;82;20961;-82
2022/01/16 04:15:54;;;;;;;45.53;20.13;;;;;;;-1.53;85.15;99648.97;2173348;82;21009;-81
2022/01/16 04:18:55;;;;;;;57.03;22.43;;;;;;;-1.54;85.17;99636.94;2173245;82;20996;-82
2022/01/16 04:21:55;;;;;;;58.23;23.87;;;;;;;-1.54;85.16;99638.22;2173206;81;20984;-81
2022/01/16 04:24:56;;;;;;;57.93;23.47;;;;;;;-1.56;85.06;99630.44;2173016;81;20980;-81
2022/01/16 04:27:56;;;;;;;52.17;24.03;;;;;;;-1.52;85.23;99637.55;2173192;82;20980;-81
2022/01/16 04:30:57;;;;;;;55.83;25.00;;;;;;;-1.44;85.34;99636.42;2172671;81;21023;-81
2022/01/16 04:33:57;;;;;;;54.37;23.70;;;;;;;-1.38;85.34;99635.97;2173061;81;21027;-81
2022/01/16 04:36:58;;;;;;;55.87;23.07;;;;;;;-1.36;85.19;99639.14;2173103;80;21059;-83
2022/01/16 04:40:01;;;;;;;46.87;19.27;;;;;;;-1.42;84.81;99635.26;2173234;81;20965;-80
2022/01/16 04:46:19;;;;;;;38.10;17.20;;;;;;;-1.60;84.95;99631.00;2173419;82;20996;-80
2022/01/16 04:49:20;;;;;;;33.40;16.50;;;;;;;-1.59;85.13;99635.33;2173188;81;20996;-81
2022/01/16 04:52:20;;;;;;;42.37;16.97;;;;;;;-1.60;85.05;99642.52;2173100;82;20960;-81
2022/01/16 04:55:23;;;;;;;33.13;15.23;;;;;;;-1.60;84.88;99645.08;2173435;81;20973;-81
2022/01/16 04:58:23;;;;;;;32.27;16.90;;;;;;;-1.61;84.89;99626.66;2173964;81;21024;-81
2022/01/16 05:01:24;;;;;;;35.03;15.97;;;;;;;-1.58;84.97;99626.87;2174423;82;20933;-81
2022/01/16 05:04:24;;;;;;;38.23;16.40;;;;;;;-1.58;84.82;99625.59;2173858;81;21019;-82
2022/01/16 05:07:25;;;;;;;41.87;16.80;;;;;;;-1.61;84.87;99618.97;2173526;81;21079;-81
2022/01/16 05:10:25;;;;;;;30.53;13.47;;;;;;;-1.61;84.89;99609.63;2173713;82;21348;-80
2022/01/16 05:16:34;;;;;;;35.73;14.87;;;;;;;-1.56;84.97;99618.91;2173294;81;21352;-82
2022/01/16 05:16:40;;;;;;;32.23;15.77;;;;;;;-1.57;84.92;99614.96;2171154;82;21000;-81
2022/01/16 05:19:40;;;;;;;35.07;15.20;;;;;;;-1.56;85.05;99613.80;2173120;81;21008;-82
2022/01/16 05:22:41;;;;;;;27.13;12.80;;;;;;;-1.51;85.02;99608.61;2173421;81;21012;-80
2022/01/16 05:25:41;;;;;;;31.03;14.83;;;;;;;-1.57;84.69;99599.60;2173585;81;20961;-82
2022/01/16 05:28:42;;;;;;;30.07;13.60;;;;;;;-1.65;84.93;99596.50;2173740;82;20973;-81
2022/01/16 05:31:45;;;;;;;30.83;14.40;;;;;;;-1.66;85.06;99585.76;2173421;81;20937;-80
2022/01/16 05:34:45;;;;;;;28.20;12.20;;;;;;;-1.65;85.10;99590.09;2173863;80;20985;-81
2022/01/16 05:37:45;;;;;;;36.73;14.77;;;;;;;-1.65;85.10;99582.42;2190243;81;21000;-83
2022/01/16 05:40:46;;;;;;;32.33;14.30;;;;;;;-1.60;85.26;99586.19;2189482;81;21007;-81
2022/01/16 05:43:46;;;;;;;32.60;14.37;;;;;;;-1.57;85.12;99582.95;2189845;81;21027;-82
2022/01/16 05:46:47;;;;;;;38.77;15.67;;;;;;;-1.54;85.06;99580.23;2189296;81;20948;-82
2022/01/16 05:49:48;;;;;;;25.97;11.77;;;;;;;-1.57;84.88;99560.81;2189647;81;20992;-80
2022/01/16 05:52:48;;;;;;;34.43;14.60;;;;;;;-1.57;84.99;99558.25;2188981;81;20963;-80
2022/01/16 05:55:49;;;;;;;31.97;14.30;;;;;;;-1.60;84.94;99569.55;2189210;81;20956;-81
2022/01/16 05:58:49;;;;;;;34.90;16.57;;;;;;;-1.64;85.04;99569.73;2189145;81;21003;-81
2022/01/16 06:01:49;;;;;;;34.70;15.73;;;;;;;-1.60;85.11;99574.67;2188907;81;20968;-82
2022/01/16 06:04:50;;;;;;;30.67;15.87;;;;;;;-1.61;84.99;99569.94;2189166;81;20968;-81
2022/01/16 06:07:54;;;;;;;39.90;18.33;;;;;;;-1.60;85.21;99568.27;2189238;81;21019;-83
2022/01/16 06:10:53;;;;;;;39.50;17.70;;;;;;;-1.58;85.25;99566.71;2189582;81;21435;-82
2022/01/16 06:13:53;;;;;;;38.57;17.13;;;;;;;-1.52;85.40;99559.84;2189574;81;20976;-81
2022/01/16 06:16:54;;;;;;;47.53;20.10;;;;;;;-1.49;85.15;99560.06;2189431;81;20944;-82
2022/01/16 06:19:54;;;;;;;39.20;18.67;;;;;;;-1.49;85.17;99550.71;2189474;81;21390;-83
2022/01/16 06:22:55;;;;;;;41.90;19.30;;;;;;;-1.43;85.27;99556.27;2189303;81;21015;-82
2022/01/16 06:25:55;;;;;;;45.37;20.43;;;;;;;-1.37;85.29;99553.23;2189671;81;20991;-81
2022/01/16 06:28:56;;;;;;;48.77;22.67;;;;;;;-1.29;85.34;99540.57;2188816;81;21012;-81
2022/01/16 06:31:56;;;;;;;48.57;22.30;;;;;;;-1.21;85.21;99529.57;2189263;81;20980;-81
2022/01/16 06:34:57;;;;;;;51.37;21.87;;;;;;;-1.14;85.08;99534.33;2188678;81;20953;-81
2022/01/16 06:37:57;;;;;;;51.53;21.67;;;;;;;-1.11;85.06;99517.89;2172299;81;21000;-80
2022/01/16 06:40:58;;;;;;;58.50;22.80;;;;;;;-1.10;84.87;99517.09;2172216;82;20988;-81
2022/01/16 06:43:58;;;;;;;54.07;23.03;;;;;;;-1.10;84.78;99518.38;2172475;81;20981;-80
2022/01/16 06:46:59;;;;;;;52.03;24.87;;;;;;;-1.07;84.89;99516.91;2173085;82;20993;-81
2022/01/16 06:49:59;;;;;;;53.87;23.93;;;;;;;-1.03;84.83;99512.89;2173479;81;20957;-81
2022/01/16 06:52:59;;;;;;;60.53;23.67;;;;;;;-0.98;84.74;99510.24;2172633;81;20933;-82
2022/01/16 06:56:00;;;;;;;57.73;25.27;;;;;;;-0.97;84.61;99515.86;2173113;81;21016;-81
2022/01/16 06:59:00;;;;;;;50.30;24.23;;;;;;;-0.93;84.66;99514.00;2173087;82;21037;-81
2022/01/16 07:02:01;;;;;;;63.93;25.83;;;;;;;-0.89;84.63;99509.58;2172779;81;21004;-81
2022/01/16 07:05:02;;;;;;;58.53;23.33;;;;;;;-0.80;84.59;99515.34;2172865;81;21414;-83
2022/01/16 07:08:03;;;;;;;67.33;28.43;;;;;;;-0.75;84.50;99513.98;2172765;82;21016;-81
2022/01/16 07:11:03;;;;;;;65.83;26.57;;;;;;;-0.73;84.41;99511.52;2173295;81;20933;-81
2022/01/16 07:14:03;;;;;;;55.63;25.80;;;;;;;-0.66;84.23;99509.86;2173154;81;20960;-81
2022/01/16 07:17:04;;;;;;;53.77;25.07;;;;;;;-0.61;84.16;99512.33;2173346;81;20961;-81
2022/01/16 07:20:04;;;;;;;59.77;25.57;;;;;;;-0.56;84.15;99504.94;2173316;82;20944;-81
2022/01/16 07:23:05;;;;;;;62.83;26.03;;;;;;;-0.51;84.03;99495.48;2173260;82;21004;-81
2022/01/16 07:26:05;;;;;;;52.53;24.87;;;;;;;-0.42;83.91;99488.77;2172656;82;20977;-82
2022/01/16 07:29:06;;;;;;;67.27;27.77;;;;;;;-0.37;83.80;99488.28;2172924;81;20976;-81
2022/01/16 07:32:07;;;;;;;64.00;28.73;;;;;;;-0.32;83.79;99486.02;2172891;81;20988;-81
2022/01/16 07:35:08;;;;;;;67.37;28.73;;;;;;;-0.28;83.63;99484.14;2172931;80;20968;-80
2022/01/16 07:38:08;;;;;;;67.43;28.27;;;;;;;-0.30;83.40;99483.16;2189380;81;21051;-80
2022/01/16 07:41:09;;;;;;;63.57;26.87;;;;;;;-0.27;83.55;99487.20;2189708;81;20968;-80
2022/01/16 07:44:09;;;;;;;69.93;29.50;;;;;;;-0.26;83.44;99477.43;2189585;81;21011;-81
2022/01/16 07:47:10;;;;;;;69.70;28.30;;;;;;;-0.24;83.45;99478.41;2189122;81;20956;-81
2022/01/16 07:50:10;;;;;;;75.50;31.23;;;;;;;-0.19;83.35;99464.20;2189558;81;20975;-81
2022/01/16 07:53:11;;;;;;;74.30;31.47;;;;;;;-0.16;83.45;99465.67;2188945;81;21015;-80
2022/01/16 07:56:11;;;;;;;76.07;31.27;;;;;;;-0.07;83.30;99459.84;2189392;81;21403;-81
2022/01/16 07:59:11;;;;;;;82.17;33.90;;;;;;;-0.01;83.04;99464.08;2189577;81;21289;-81
2022/01/16 08:02:12;;;;;;;79.80;33.83;;;;;;;0.04;83.00;99456.70;2189402;81;20956;-81
2022/01/16 08:05:12;;;;;;;82.93;36.23;;;;;;;0.12;82.80;99441.38;2189541;81;20948;-81
2022/01/16 08:08:13;;;;;;;90.50;37.07;;;;;;;0.21;82.77;99438.49;2189729;81;21019;-81
2022/01/16 08:11:13;;;;;;;78.03;33.53;;;;;;;0.31;82.66;99440.44;2189583;81;20948;-81
2022/01/16 08:14:14;;;;;;;87.17;36.80;;;;;;;0.47;82.32;99427.23;2189314;81;20948;-81
2022/01/16 08:17:14;;;;;;;79.60;34.97;;;;;;;0.56;82.09;99430.36;2189128;81;20956;-80
2022/01/16 08:20:15;;;;;;;76.63;34.60;;;;;;;0.64;81.81;99419.75;2188979;81;20968;-81
2022/01/16 08:23:15;;;;;;;92.43;38.03;;;;;;;0.66;81.69;99427.95;2189122;81;21031;-85
2022/01/16 08:26:16;;;;;;;80.50;36.37;;;;;;;2.58;99.28;99407.91;2189028;81;20980;-85
2022/01/16 08:29:16;;;;;;;72.50;33.43;;;;;;;6.96;100.00;99384.56;2189791;81;20983;-84
2022/01/16 08:32:17;;;;;;;70.60;30.70;;;;;;;9.90;86.21;99378.88;2190094;81;20996;-82
2022/01/16 08:35:17;;;;;;;68.90;31.00;;;;;;;11.86;74.08;99379.69;2189395;81;21008;-83
2022/01/16 08:38:18;;;;;;;69.73;33.07;;;;;;;9.67;64.90;99376.58;2189131;81;21019;-83
2022/01/16 08:41:18;;;;;;;61.53;31.93;;;;;;;7.40;63.44;99384.30;2189582;81;21383;-82
2022/01/16 08:44:20;;;;;;;62.20;31.50;;;;;;;5.78;64.62;99379.66;2189365;81;21489;-81
2022/01/16 08:47:23;;;;;;;65.53;30.57;;;;;;;4.62;66.13;99379.10;2189066;81;21044;-82
2022/01/16 08:50:23;;;;;;;67.53;31.77;;;;;;;3.91;67.66;99381.48;2189534;81;20960;-82
2022/01/16 08:53:24;;;;;;;63.17;30.53;;;;;;;3.21;68.61;99372.92;2189297;81;20979;-82
2022/01/16 08:56:24;;;;;;;65.13;30.90;;;;;;;2.76;69.79;99366.36;2189187;81;20959;-82
2022/01/16 08:59:25;;;;;;;66.07;31.30;;;;;;;2.43;70.77;99370.23;2189277;81;20971;-82
2022/01/16 09:02:25;;;;;;;54.60;28.23;;;;;;;2.16;71.36;99366.22;2189371;81;21419;-82
2022/01/16 09:05:26;;;;;;;67.43;32.67;;;;;;;1.94;72.02;99355.58;2189341;81;21304;-82
2022/01/16 09:08:26;;;;;;;67.70;31.77;;;;;;;1.70;72.67;99360.25;2189200;81;21439;-82
2022/01/16 09:11:27;;;;;;;58.30;29.97;;;;;;;1.60;73.21;99355.00;2189684;81;21284;-81
2022/01/16 09:14:28;;;;;;;63.80;29.93;;;;;;;1.55;73.70;99351.29;2189454;81;20996;-82
2022/01/16 09:17:28;;;;;;;65.80;30.77;;;;;;;1.52;73.94;99347.27;2189276;81;21385;-82
2022/01/16 09:20:29;;;;;;;70.63;32.23;;;;;;;1.55;74.18;99345.74;2189667;81;20944;-81
2022/01/16 09:23:29;;;;;;;72.63;36.23;;;;;;;1.56;74.43;99328.22;2189518;81;20999;-82
2022/01/16 09:26:29;;;;;;;73.57;34.83;;;;;;;1.55;74.58;99316.55;2189711;81;20956;-83
2022/01/16 09:29:30;;;;;;;81.30;39.03;;;;;;;1.52;74.69;99315.98;2189463;81;20955;-81
2022/01/16 09:32:33;;;;;;;84.73;38.00;;;;;;;1.42;75.10;99322.71;2189111;81;20967;-80
2022/01/16 09:35:33;;;;;;;85.07;36.37;;;;;;;1.45;75.47;99312.59;2189240;81;21114;-82
2022/01/16 09:38:34;;;;;;;69.13;35.20;;;;;;;3.16;92.14;99292.73;2188896;81;21019;-84
2022/01/16 09:44:37;;;;;;;61.93;31.70;;;;;;;8.02;66.89;99281.02;2171511;81;20956;-81
2022/01/16 09:47:37;;;;;;;62.70;32.70;;;;;;;6.41;64.51;99282.27;2189147;81;20972;-81
2022/01/16 09:50:38;;;;;;;58.87;32.80;;;;;;;5.12;65.20;99286.80;2189220;81;20961;-82
2022/01/16 09:53:38;;;;;;;70.33;34.67;;;;;;;4.38;66.78;99289.73;2189008;81;20956;-81
2022/01/16 09:56:39;;;;;;;63.60;31.67;;;;;;;3.92;67.78;99287.69;2189020;81;20980;-82
2022/01/16 09:59:39;;;;;;;60.10;32.20;;;;;;;3.60;68.41;99282.75;2189239;81;20999;-83
2022/01/16 10:02:40;;;;;;;66.60;34.37;;;;;;;3.33;69.10;99279.33;2189262;81;21362;-84
2022/01/16 10:05:40;;;;;;;62.27;32.67;;;;;;;6.59;80.01;99260.45;2188905;81;21375;-80
2022/01/16 10:08:41;;;;;;;64.67;34.77;;;;;;;8.43;69.41;99247.52;2188681;81;21359;-80
2022/01/16 10:11:46;;;;;;;69.13;34.97;;;;;;;7.08;64.04;99250.83;2189210;81;20975;-80
2022/01/16 10:14:47;;;;;;;67.80;35.33;;;;;;;5.82;64.08;99247.24;2189069;81;21344;-80
2022/01/16 10:17:49;;;;;;;68.57;36.47;;;;;;;5.02;64.83;99253.20;2189034;81;20967;-80
2022/01/16 10:20:49;;;;;;;72.30;36.80;;;;;;;4.46;66.14;99261.22;2189352;81;20944;-80
2022/01/16 10:23:50;;;;;;;71.40;36.23;;;;;;;4.18;67.22;99256.95;2189133;81;21427;-80
2022/01/16 10:26:50;;;;;;;62.67;33.30;;;;;;;4.00;67.50;99242.41;2189383;81;20932;-82
2022/01/16 10:29:56;;;;;;;70.87;36.67;;;;;;;3.94;68.05;99242.55;2189236;81;20940;-82
2022/01/16 10:32:53;;;;;;;66.23;34.50;;;;;;;3.88;68.27;99238.00;2188964;81;21048;-82
2022/01/16 10:35:53;;;;;;;72.77;35.40;;;;;;;3.81;68.39;99235.96;2189271;80;20953;-80
2022/01/16 10:38:54;;;;;;;65.13;34.60;;;;;;;3.80;69.04;99225.16;2172678;81;21008;-83
2022/01/16 10:41:54;;;;;;;68.97;33.47;;;;;;;3.85;69.21;99221.08;2172807;81;21376;-81
2022/01/16 10:44:55;;;;;;;62.07;33.73;;;;;;;3.87;69.00;99215.98;2172918;81;21372;-84
2022/01/16 10:47:56;;;;;;;74.30;33.00;;;;;;;3.88;68.77;99213.88;2173025;82;20968;-81
2022/01/16 10:50:56;;;;;;;60.70;32.10;;;;;;;3.88;68.64;99212.58;2172465;81;20980;-80
2022/01/16 10:53:57;;;;;;;66.47;33.20;;;;;;;3.94;68.85;99207.69;2172756;81;20980;-80
2022/01/16 10:56:57;;;;;;;61.67;33.20;;;;;;;4.06;68.83;99200.05;2172765;81;20956;-80
2022/01/16 10:59:58;;;;;;;61.37;33.50;;;;;;;4.19;68.87;99194.12;2172889;81;20984;-80
2022/01/16 11:02:58;;;;;;;60.73;32.43;;;;;;;4.26;68.62;99184.11;2172769;81;21024;-81
2022/01/16 11:05:59;;;;;;;56.83;32.80;;;;;;;4.35;67.78;99181.05;2172701;82;20988;-80
2022/01/16 11:09:03;;;;;;;68.37;36.07;;;;;;;4.44;68.18;99173.27;2172783;81;21016;-80
2022/01/16 11:12:01;;;;;;;66.00;33.97;;;;;;;4.60;68.56;99165.73;2172687;81;21042;-80
